createdAt,value
2023-05-24T00:02:11.212Z,13.80
2023-05-24T00:04:38.202Z,13.80
2023-05-24T00:07:05.260Z,13.80
2023-05-24T00:09:32.276Z,13.70
2023-05-24T00:12:00.583Z,13.70
2023-05-24T00:14:27.494Z,13.60
2023-05-24T00:16:54.487Z,13.60
2023-05-24T00:19:21.426Z,13.50
2023-05-24T00:21:48.347Z,13.50
2023-05-24T00:24:15.384Z,13.40
2023-05-24T00:26:42.278Z,13.40
2023-05-24T00:29:10.680Z,13.40
2023-05-24T00:31:37.575Z,13.40
2023-05-24T00:34:04.489Z,13.50
2023-05-24T00:36:31.483Z,13.50
2023-05-24T00:38:58.505Z,13.50
2023-05-24T00:41:25.564Z,13.50
2023-05-24T00:43:52.605Z,13.60
2023-05-24T00:46:22.520Z,13.60
2023-05-24T00:48:50.342Z,13.50
2023-05-24T00:51:17.230Z,13.50
2023-05-24T00:53:46.358Z,13.50
2023-05-24T00:56:13.974Z,13.50
2023-05-24T00:58:41.994Z,13.40
2023-05-24T01:01:09.096Z,13.40
2023-05-24T01:03:37.641Z,13.40
2023-05-24T01:06:07.030Z,13.40
2023-05-24T01:08:45.779Z,13.40
2023-05-24T01:11:21.619Z,13.50
2023-05-24T01:13:58.415Z,13.40
2023-05-24T01:16:31.479Z,13.40
2023-05-24T01:19:05.625Z,13.40
2023-05-24T01:21:50.377Z,13.40
2023-05-24T01:24:29.949Z,13.40
2023-05-24T01:27:06.571Z,13.40
2023-05-24T01:29:34.712Z,13.40
2023-05-24T01:32:02.275Z,13.40
2023-05-24T01:34:29.424Z,13.40
2023-05-24T01:36:57.383Z,13.40
2023-05-24T01:39:27.563Z,13.40
2023-05-24T01:42:06.978Z,13.30
2023-05-24T01:44:38.985Z,13.30
2023-05-24T01:47:19.344Z,13.30
2023-05-24T01:49:51.027Z,13.30
2023-05-24T01:52:22.901Z,13.30
2023-05-24T01:54:53.143Z,13.30
2023-05-24T01:57:24.246Z,13.30
2023-05-24T01:59:52.117Z,13.30
2023-05-24T02:02:19.694Z,13.30
2023-05-24T02:04:46.879Z,13.30
2023-05-24T02:07:14.006Z,13.30
2023-05-24T02:09:41.326Z,13.20
2023-05-24T02:12:09.699Z,13.30
2023-05-24T02:14:38.029Z,13.30
2023-05-24T02:17:05.951Z,13.30
2023-05-24T02:19:33.339Z,13.30
2023-05-24T02:22:00.155Z,13.30
2023-05-24T02:24:27.012Z,13.30
2023-05-24T02:26:53.829Z,13.30
2023-05-24T02:29:20.672Z,13.30
2023-05-24T02:31:48.974Z,13.30
2023-05-24T02:34:15.867Z,13.30
2023-05-24T02:36:43.038Z,13.30
2023-05-24T02:39:09.909Z,13.30
2023-05-24T02:41:36.890Z,13.30
2023-05-24T02:44:04.181Z,13.30
2023-05-24T02:46:31.280Z,13.30
2023-05-24T02:48:59.548Z,13.30
2023-05-24T02:51:26.977Z,13.20
2023-05-24T02:53:53.832Z,13.30
2023-05-24T02:56:21.150Z,13.30
2023-05-24T02:58:47.981Z,13.30
2023-05-24T03:01:14.843Z,13.20
2023-05-24T03:03:41.978Z,13.10
2023-05-24T03:06:10.360Z,13.10
2023-05-24T03:08:38.256Z,13.10
2023-05-24T03:11:05.438Z,13.10
2023-05-24T03:13:32.407Z,13.10
2023-05-24T03:15:59.303Z,13.10
2023-05-24T03:18:26.135Z,13.20
2023-05-24T03:20:53.033Z,13.20
2023-05-24T03:23:21.272Z,13.20
2023-05-24T03:25:48.258Z,13.20
2023-05-24T03:28:15.172Z,13.20
2023-05-24T03:30:42.322Z,13.20
2023-05-24T03:33:09.418Z,13.10
2023-05-24T03:35:36.251Z,13.10
2023-05-24T03:38:03.143Z,13.10
2023-05-24T03:40:31.439Z,13.00
2023-05-24T03:42:58.343Z,13.00
2023-05-24T03:45:37.535Z,13.00
2023-05-24T03:48:06.103Z,13.00
2023-05-24T03:50:32.946Z,13.00
2023-05-24T03:52:59.969Z,12.90
2023-05-24T03:55:26.836Z,12.90
2023-05-24T03:57:55.065Z,12.90
2023-05-24T04:00:22.214Z,12.90
2023-05-24T04:02:49.376Z,12.90
2023-05-24T04:05:16.331Z,13.00
2023-05-24T04:07:43.296Z,12.90
2023-05-24T04:10:10.417Z,12.90
2023-05-24T04:12:37.227Z,13.00
2023-05-24T04:15:06.749Z,13.00
2023-05-24T04:17:33.856Z,13.00
2023-05-24T04:20:01.286Z,13.00
2023-05-24T04:22:28.578Z,13.00
2023-05-24T04:24:55.588Z,13.00
2023-05-24T04:27:22.531Z,13.10
2023-05-24T04:29:49.423Z,13.20
2023-05-24T04:32:18.061Z,13.20
2023-05-24T04:34:45.409Z,13.20
2023-05-24T04:37:12.449Z,13.30
2023-05-24T04:39:39.526Z,13.30
2023-05-24T04:42:07.588Z,13.40
2023-05-24T04:44:34.446Z,13.50
2023-05-24T04:47:01.558Z,13.60
2023-05-24T04:49:29.925Z,13.70
2023-05-24T04:51:57.030Z,13.80
2023-05-24T04:54:25.116Z,13.90
2023-05-24T04:56:52.366Z,13.90
2023-05-24T04:59:19.530Z,13.80
2023-05-24T05:01:46.796Z,13.70
2023-05-24T05:04:14.239Z,13.60
2023-05-24T05:06:43.115Z,13.50
2023-05-24T05:09:10.169Z,13.50
2023-05-24T05:11:37.188Z,13.40
2023-05-24T05:14:04.167Z,13.30
2023-05-24T05:16:31.165Z,13.40
2023-05-24T05:18:58.289Z,13.60
2023-05-24T05:21:25.359Z,13.70
2023-05-24T05:23:53.779Z,13.90
2023-05-24T05:26:20.656Z,13.80
2023-05-24T05:28:48.085Z,13.90
2023-05-24T05:31:15.082Z,13.90
2023-05-24T05:33:42.024Z,13.90
2023-05-24T05:36:09.573Z,14.00
2023-05-24T05:38:38.432Z,14.10
2023-05-24T05:41:06.956Z,14.20
2023-05-24T05:43:34.025Z,14.20
2023-05-24T05:46:01.024Z,14.30
2023-05-24T05:48:28.046Z,14.40
2023-05-24T05:53:53.406Z,14.60
2023-05-24T05:56:26.805Z,14.50
2023-05-24T05:58:53.843Z,14.60
2023-05-24T06:01:20.839Z,14.90
2023-05-24T06:03:47.946Z,15.20
2023-05-24T06:06:14.856Z,15.40
2023-05-24T06:08:41.660Z,15.40
2023-05-24T06:11:09.798Z,15.50
2023-05-24T06:13:38.250Z,15.70
2023-05-24T06:16:05.415Z,15.90
2023-05-24T06:18:32.304Z,16.00
2023-05-24T06:20:59.158Z,16.20
2023-05-24T06:23:26.027Z,16.20
2023-05-24T06:25:52.830Z,16.40
2023-05-24T06:28:19.745Z,16.50
2023-05-24T06:30:48.103Z,16.70
2023-05-24T06:33:15.036Z,16.80
2023-05-24T06:35:41.963Z,17.00
2023-05-24T06:38:09.073Z,17.00
2023-05-24T06:40:35.912Z,17.10
2023-05-24T06:43:02.779Z,17.30
2023-05-24T06:45:29.624Z,17.50
2023-05-24T06:47:57.934Z,17.60
2023-05-24T06:50:24.802Z,17.80
2023-05-24T06:52:51.571Z,18.00
2023-05-24T06:55:19.323Z,18.30
2023-05-24T06:57:46.122Z,18.50
2023-05-24T07:00:14.051Z,18.70
2023-05-24T07:02:41.213Z,19.00
2023-05-24T07:05:09.885Z,19.20
2023-05-24T07:07:36.652Z,19.30
2023-05-24T07:10:03.681Z,19.40
2023-05-24T07:12:30.479Z,19.40
2023-05-24T07:14:57.274Z,19.30
2023-05-24T07:17:24.300Z,19.10
2023-05-24T07:19:51.229Z,18.90
2023-05-24T07:22:19.463Z,18.80
2023-05-24T07:24:46.280Z,19.00
2023-05-24T07:27:13.024Z,19.00
2023-05-24T07:29:39.925Z,19.00
2023-05-24T07:32:07.384Z,19.30
2023-05-24T07:34:34.378Z,19.40
2023-05-24T07:37:01.347Z,19.60
2023-05-24T07:39:29.505Z,19.60
2023-05-24T07:41:56.522Z,19.60
2023-05-24T07:44:23.283Z,19.60
2023-05-24T07:46:50.277Z,19.80
2023-05-24T07:49:17.330Z,19.80
2023-05-24T07:51:44.184Z,19.80
2023-05-24T07:54:10.996Z,19.80
2023-05-24T07:56:39.121Z,19.70
2023-05-24T07:59:05.870Z,19.70
2023-05-24T08:01:33.754Z,19.60
2023-05-24T08:04:01.100Z,19.50
2023-05-24T08:06:27.977Z,19.60
2023-05-24T08:08:54.825Z,19.50
2023-05-24T08:11:21.717Z,19.40
2023-05-24T08:13:49.856Z,19.40
2023-05-24T08:16:16.692Z,19.50
2023-05-24T08:18:43.518Z,19.80
2023-05-24T08:21:10.342Z,20.00
2023-05-24T08:23:37.112Z,20.00
2023-05-24T08:26:04.350Z,19.80
2023-05-24T08:28:31.202Z,19.60
2023-05-24T08:30:59.416Z,19.50
2023-05-24T08:33:26.213Z,19.40
2023-05-24T08:35:53.006Z,19.30
2023-05-24T08:38:19.800Z,18.90
2023-05-24T08:40:47.939Z,18.80
2023-05-24T08:43:15.279Z,18.80
2023-05-24T08:45:43.178Z,19.00
2023-05-24T08:48:12.174Z,19.00
2023-05-24T08:50:39.370Z,18.80
2023-05-24T08:53:06.999Z,18.60
2023-05-24T08:55:34.873Z,18.40
2023-05-24T08:58:01.699Z,18.20
2023-05-24T09:00:28.496Z,17.90
2023-05-24T09:02:57.079Z,17.80
2023-05-24T09:05:25.964Z,17.60
2023-05-24T09:07:54.233Z,17.70
2023-05-24T09:10:22.745Z,17.90
2023-05-24T09:12:55.228Z,18.20
2023-05-24T09:15:22.208Z,18.40
2023-05-24T09:17:49.110Z,18.70
2023-05-24T09:20:16.009Z,18.70
2023-05-24T09:22:48.516Z,18.50
2023-05-24T09:25:15.545Z,18.30
2023-05-24T09:27:44.645Z,18.20
2023-05-24T09:30:13.358Z,18.20
2023-05-24T09:32:40.469Z,18.20
2023-05-24T09:35:09.397Z,18.10
2023-05-24T09:37:37.225Z,18.10
2023-05-24T09:40:06.788Z,18.00
2023-05-24T09:42:33.650Z,18.00
2023-05-24T09:45:00.689Z,18.00
2023-05-24T09:47:29.383Z,17.90
2023-05-24T09:49:56.233Z,18.00
2023-05-24T09:52:23.300Z,17.80
2023-05-24T09:54:50.945Z,17.60
2023-05-24T09:57:19.325Z,17.50
2023-05-24T09:59:46.678Z,17.50
2023-05-24T10:02:13.602Z,17.60
2023-05-24T10:04:40.484Z,17.50
2023-05-24T10:07:07.828Z,17.50
2023-05-24T10:09:35.512Z,17.40
2023-05-24T10:12:03.773Z,17.20
2023-05-24T10:14:34.155Z,17.00
2023-05-24T10:17:01.075Z,16.90
2023-05-24T10:19:27.905Z,16.80
2023-05-24T10:21:56.987Z,16.90
2023-05-24T10:24:29.157Z,17.00
2023-05-24T10:26:57.739Z,16.80
2023-05-24T10:29:34.796Z,16.50
2023-05-24T10:32:04.195Z,16.20
2023-05-24T10:34:31.186Z,16.10
2023-05-24T10:36:58.995Z,15.90
2023-05-24T10:39:26.005Z,15.90
2023-05-24T10:41:56.212Z,15.90
2023-05-24T10:44:28.466Z,15.90
2023-05-24T10:47:10.168Z,16.10
2023-05-24T10:49:37.543Z,16.40
2023-05-24T10:52:08.463Z,16.60
2023-05-24T10:54:35.373Z,16.90
2023-05-24T10:57:02.662Z,17.00
2023-05-24T10:59:32.320Z,17.10
2023-05-24T11:01:59.697Z,17.20
2023-05-24T11:04:31.292Z,17.10
2023-05-24T11:07:01.559Z,16.80
2023-05-24T11:09:28.722Z,16.50
2023-05-24T11:11:57.403Z,16.30
2023-05-24T11:14:27.164Z,16.10
2023-05-24T11:16:54.721Z,16.00
2023-05-24T11:19:23.847Z,16.00
2023-05-24T11:21:53.271Z,16.00
2023-05-24T11:24:21.077Z,15.90
2023-05-24T11:26:47.938Z,15.90
2023-05-24T11:29:15.585Z,15.90
2023-05-24T11:31:47.602Z,16.10
2023-05-24T11:34:15.012Z,16.50
2023-05-24T11:36:43.172Z,16.70
2023-05-24T11:39:13.201Z,17.00
2023-05-24T11:41:40.998Z,17.30
2023-05-24T11:44:09.216Z,17.70
2023-05-24T11:46:36.409Z,18.10
2023-05-24T11:49:03.421Z,18.30
2023-05-24T11:51:31.940Z,18.30
2023-05-24T11:53:59.748Z,18.30
2023-05-24T11:56:33.239Z,18.50
2023-05-24T11:59:10.124Z,18.80
2023-05-24T12:01:37.402Z,18.80
2023-05-24T12:04:06.790Z,18.70
2023-05-24T12:06:38.958Z,18.50
2023-05-24T12:09:06.660Z,18.30
2023-05-24T12:11:35.168Z,18.20
2023-05-24T12:14:02.584Z,17.80
2023-05-24T12:16:30.170Z,17.50
2023-05-24T12:19:05.295Z,17.30
2023-05-24T12:21:34.377Z,17.30
2023-05-24T12:24:12.349Z,17.30
2023-05-24T12:26:44.525Z,17.40
2023-05-24T12:29:11.867Z,17.60
2023-05-24T12:31:40.535Z,17.60
2023-05-24T12:34:07.639Z,17.70
2023-05-24T12:36:35.459Z,17.70
2023-05-24T12:39:17.034Z,17.80
2023-05-24T12:41:45.478Z,17.60
2023-05-24T12:44:12.693Z,17.40
2023-05-24T12:46:39.866Z,17.10
2023-05-24T12:49:06.763Z,17.10
2023-05-24T12:51:34.029Z,17.10
2023-05-24T12:54:01.091Z,17.00
2023-05-24T12:56:28.100Z,17.00
2023-05-24T12:58:56.611Z,17.00
2023-05-24T13:01:23.680Z,17.20
2023-05-24T13:03:50.853Z,17.60
2023-05-24T13:06:17.832Z,18.20
2023-05-24T13:08:45.239Z,18.80
2023-05-24T13:11:12.430Z,19.60
2023-05-24T13:13:39.429Z,20.30
2023-05-24T13:16:08.174Z,20.70
2023-05-24T13:18:35.478Z,20.60
2023-05-24T13:21:02.432Z,20.30
2023-05-24T13:23:29.572Z,20.10
2023-05-24T13:25:56.519Z,20.00
2023-05-24T13:28:23.402Z,19.80
2023-05-24T13:30:50.467Z,19.60
2023-05-24T13:33:18.938Z,19.40
2023-05-24T13:35:46.230Z,19.40
2023-05-24T13:38:13.418Z,19.30
2023-05-24T13:40:41.899Z,19.20
2023-05-24T13:43:09.106Z,19.10
2023-05-24T13:45:36.139Z,19.00
2023-05-24T13:48:03.165Z,19.00
2023-05-24T13:50:32.717Z,19.10
2023-05-24T13:53:00.021Z,19.40
2023-05-24T13:55:27.030Z,19.60
2023-05-24T13:57:54.260Z,19.80
2023-05-24T14:00:22.020Z,19.90
2023-05-24T14:02:49.478Z,19.90
2023-05-24T14:07:48.303Z,19.50
2023-05-24T14:10:15.302Z,19.10
2023-05-24T14:12:42.385Z,18.80
2023-05-24T14:15:10.063Z,18.60
2023-05-24T14:17:37.124Z,18.70
2023-05-24T14:20:04.751Z,18.70
2023-05-24T14:22:31.604Z,18.70
2023-05-24T14:24:59.971Z,18.30
2023-05-24T14:27:27.004Z,18.10
2023-05-24T14:29:53.880Z,17.90
2023-05-24T14:32:20.896Z,18.10
2023-05-24T14:34:47.821Z,18.30
2023-05-24T14:37:14.828Z,18.30
2023-05-24T14:39:42.216Z,18.50
2023-05-24T14:42:10.696Z,18.80
2023-05-24T14:44:37.652Z,19.20
2023-05-24T14:47:04.930Z,19.60
2023-05-24T14:49:31.756Z,19.90
2023-05-24T14:51:58.748Z,20.10
2023-05-24T14:54:25.826Z,20.20
2023-05-24T14:56:52.889Z,20.20
2023-05-24T14:59:21.352Z,20.30
2023-05-24T15:01:48.346Z,20.50
2023-05-24T15:04:15.232Z,20.90
2023-05-24T15:06:42.293Z,21.40
2023-05-24T15:09:09.249Z,21.70
2023-05-24T15:11:36.583Z,22.30
2023-05-24T15:14:03.777Z,22.70
2023-05-24T15:16:32.177Z,23.10
2023-05-24T15:18:59.221Z,23.30
2023-05-24T15:21:26.419Z,23.40
2023-05-24T15:23:53.600Z,23.40
2023-05-24T15:26:20.741Z,23.30
2023-05-24T15:28:47.657Z,23.40
2023-05-24T15:31:14.587Z,23.80
2023-05-24T15:33:43.220Z,24.20
2023-05-24T15:36:10.367Z,24.40
2023-05-24T15:38:37.383Z,24.60
2023-05-24T15:41:04.611Z,24.90
2023-05-24T15:43:31.604Z,25.20
2023-05-24T15:45:58.420Z,25.60
2023-05-24T15:48:25.487Z,27.70
2023-05-24T15:51:42.724Z,31.00
2023-05-24T15:53:40.956Z,33.60
2023-05-24T15:56:08.652Z,36.30
2023-05-24T15:58:35.687Z,38.00
2023-05-24T16:01:03.213Z,38.90
2023-05-24T16:03:30.462Z,39.30
2023-05-24T16:05:59.089Z,39.00
2023-05-24T16:08:25.941Z,38.90
2023-05-24T16:10:53.082Z,38.80
2023-05-24T16:13:20.118Z,38.90
2023-05-24T16:15:47.066Z,39.00
2023-05-24T16:18:14.184Z,39.30
2023-05-24T16:20:41.658Z,39.90
2023-05-24T16:23:10.233Z,40.40
2023-05-24T16:25:37.561Z,40.80
2023-05-24T16:28:04.506Z,41.00
2023-05-24T16:30:31.460Z,41.10
2023-05-24T16:32:58.465Z,40.70
2023-05-24T16:35:25.735Z,40.00
2023-05-24T16:37:52.847Z,39.40
2023-05-24T16:40:21.434Z,39.20
2023-05-24T16:42:49.023Z,39.40
2023-05-24T16:45:16.414Z,39.80
2023-05-24T16:47:43.748Z,40.00
2023-05-24T16:50:11.987Z,39.70
2023-05-24T16:52:41.051Z,38.70
2023-05-24T16:55:09.090Z,36.90
2023-05-24T16:57:37.562Z,34.90
2023-05-24T17:00:05.573Z,32.80
2023-05-24T17:02:33.423Z,31.00
2023-05-24T17:05:00.674Z,29.30
2023-05-24T17:07:28.155Z,28.00
2023-05-24T17:09:55.103Z,26.80
2023-05-24T17:12:22.173Z,25.90
2023-05-24T17:14:50.653Z,25.00
2023-05-24T17:17:17.771Z,24.20
2023-05-24T17:19:44.913Z,23.50
2023-05-24T17:22:12.506Z,22.80
2023-05-24T17:24:40.199Z,22.30
2023-05-24T17:27:07.357Z,21.70
2023-05-24T17:29:35.953Z,21.20
2023-05-24T17:32:05.380Z,20.70
2023-05-24T17:34:33.178Z,20.20
2023-05-24T17:37:00.702Z,19.90
2023-05-24T17:39:27.955Z,19.60
2023-05-24T17:41:54.956Z,19.30
2023-05-24T17:44:22.011Z,19.10
2023-05-24T17:46:49.473Z,18.90
2023-05-24T17:49:18.228Z,18.70
2023-05-24T17:51:45.180Z,18.60
2023-05-24T17:54:14.472Z,18.40
2023-05-24T17:56:43.050Z,18.30
2023-05-24T17:59:11.935Z,18.20
2023-05-24T18:01:39.088Z,18.10
2023-05-24T18:04:08.380Z,18.00
2023-05-24T18:06:37.700Z,17.90
2023-05-24T18:09:05.579Z,17.90
2023-05-24T18:11:32.946Z,17.80
2023-05-24T18:14:00.505Z,17.70
2023-05-24T18:16:27.994Z,17.60
2023-05-24T18:18:57.090Z,17.50
2023-05-24T18:21:24.138Z,17.40
2023-05-24T18:23:52.962Z,17.30
2023-05-24T18:26:21.874Z,17.10
2023-05-24T18:28:48.997Z,17.00
2023-05-24T18:31:15.950Z,16.90
2023-05-24T18:33:42.976Z,16.80
2023-05-24T18:36:10.494Z,16.80
2023-05-24T18:38:37.802Z,16.70
2023-05-24T18:41:06.791Z,16.70
2023-05-24T18:43:33.815Z,16.60
2023-05-24T18:46:00.820Z,16.50
2023-05-24T18:48:28.410Z,16.50
2023-05-24T18:50:55.661Z,16.40
2023-05-24T18:53:22.709Z,16.30
2023-05-24T18:55:49.764Z,16.20
2023-05-24T18:58:18.600Z,16.20
2023-05-24T19:00:45.734Z,16.10
2023-05-24T19:03:12.801Z,16.10
2023-05-24T19:05:43.316Z,16.00
2023-05-24T19:08:11.013Z,15.80
2023-05-24T19:10:38.113Z,15.60
2023-05-24T19:13:06.333Z,15.50
2023-05-24T19:15:34.866Z,15.30
2023-05-24T19:18:01.813Z,15.20
2023-05-24T19:20:28.849Z,15.10
2023-05-24T19:22:55.764Z,15.10
2023-05-24T19:25:22.646Z,15.00
2023-05-24T19:27:59.378Z,14.80
2023-05-24T19:30:27.310Z,14.70
2023-05-24T19:32:55.977Z,14.60
2023-05-24T19:35:23.118Z,14.50
2023-05-24T19:37:50.092Z,14.40
2023-05-24T19:40:17.031Z,14.40
2023-05-24T19:42:44.005Z,14.30
2023-05-24T19:45:11.320Z,14.30
2023-05-24T19:47:38.464Z,14.30
2023-05-24T19:50:08.100Z,14.30
2023-05-24T19:52:35.024Z,14.20
2023-05-24T19:55:01.938Z,14.10
2023-05-24T19:57:28.833Z,14.00
2023-05-24T19:59:55.734Z,13.90
2023-05-24T20:02:22.747Z,13.80
2023-05-24T20:04:49.724Z,13.80
2023-05-24T20:07:18.050Z,13.70
2023-05-24T20:09:44.957Z,13.60
2023-05-24T20:12:11.945Z,13.60
2023-05-24T20:14:38.782Z,13.50
2023-05-24T20:17:05.682Z,13.50
2023-05-24T20:19:32.569Z,13.40
2023-05-24T20:21:59.403Z,13.30
2023-05-24T20:24:27.656Z,13.20
2023-05-24T20:26:54.546Z,13.10
2023-05-24T20:29:21.498Z,13.10
2023-05-24T20:31:48.473Z,13.00
2023-05-24T20:34:15.329Z,12.90
2023-05-24T20:36:43.700Z,12.80
2023-05-24T20:39:11.004Z,12.80
2023-05-24T20:41:39.512Z,12.80
2023-05-24T20:44:06.405Z,12.80
2023-05-24T20:46:33.557Z,12.80
2023-05-24T20:49:00.593Z,12.80
2023-05-24T20:51:27.634Z,12.80
2023-05-24T20:53:54.565Z,12.80
2023-05-24T20:56:22.845Z,12.70
2023-05-24T20:58:50.991Z,12.70
2023-05-24T21:01:17.930Z,12.60
2023-05-24T21:03:44.830Z,12.50
2023-05-24T21:06:12.211Z,12.50
2023-05-24T21:08:39.130Z,12.50
2023-05-24T21:11:06.055Z,12.40
2023-05-24T21:13:32.901Z,12.40
2023-05-24T21:16:01.195Z,12.40
2023-05-24T21:18:28.068Z,12.40
2023-05-24T21:20:54.995Z,12.40
2023-05-24T21:23:21.906Z,12.40
2023-05-24T21:25:48.804Z,12.50
2023-05-24T21:28:15.633Z,12.40
2023-05-24T21:30:42.475Z,12.40
2023-05-24T21:33:10.916Z,12.40
2023-05-24T21:35:37.827Z,12.50
2023-05-24T21:38:04.705Z,12.50
2023-05-24T21:40:31.716Z,12.60
2023-05-24T21:42:58.571Z,12.60
2023-05-24T21:45:25.365Z,12.70
2023-05-24T21:47:52.195Z,12.70
2023-05-24T21:50:20.615Z,12.70
2023-05-24T21:52:47.456Z,12.70
2023-05-24T21:55:14.497Z,12.70
2023-05-24T21:57:41.310Z,12.70
2023-05-24T22:00:09.392Z,12.70
2023-05-24T22:02:36.534Z,12.70
2023-05-24T22:05:03.844Z,12.70
2023-05-24T22:07:32.346Z,12.60
2023-05-24T22:09:59.337Z,12.60
2023-05-24T22:12:26.170Z,12.60
2023-05-24T22:14:53.078Z,12.60
2023-05-24T22:17:20.019Z,12.60
2023-05-24T22:19:47.060Z,12.60
2023-05-24T22:22:14.394Z,12.60
2023-05-24T22:24:42.630Z,12.60
2023-05-24T22:27:09.475Z,12.60
2023-05-24T22:29:36.432Z,12.70
2023-05-24T22:32:03.447Z,12.60
2023-05-24T22:34:30.744Z,12.70
2023-05-24T22:36:58.396Z,12.70
2023-05-24T22:39:25.563Z,12.70
2023-05-24T22:41:53.946Z,12.70
2023-05-24T22:44:20.847Z,12.70
2023-05-24T22:46:48.139Z,12.70
2023-05-24T22:49:15.318Z,12.70
2023-05-24T22:51:42.315Z,12.60
2023-05-24T22:54:09.305Z,12.70
2023-05-24T22:56:36.202Z,12.60
2023-05-24T22:59:04.724Z,12.60
2023-05-24T23:01:31.668Z,12.60
2023-05-24T23:04:11.450Z,12.50
2023-05-24T23:06:45.423Z,12.50
2023-05-24T23:09:12.694Z,12.50
2023-05-24T23:11:39.566Z,12.60
2023-05-24T23:14:08.201Z,12.60
2023-05-24T23:16:35.652Z,12.60
2023-05-24T23:19:02.602Z,12.60
2023-05-24T23:21:29.745Z,12.60
2023-05-24T23:23:56.973Z,12.60
2023-05-24T23:26:24.259Z,12.60
2023-05-24T23:28:51.321Z,12.60
2023-05-24T23:31:21.082Z,12.60
2023-05-24T23:33:49.296Z,12.60
2023-05-24T23:39:11.239Z,12.50
2023-05-24T23:41:38.455Z,12.50
2023-05-24T23:44:05.333Z,12.50
2023-05-24T23:46:32.231Z,12.50
2023-05-24T23:49:00.019Z,12.50
2023-05-24T23:51:27.495Z,12.50
2023-05-24T23:53:54.321Z,12.40
2023-05-24T23:56:22.586Z,12.40
2023-05-24T23:58:49.355Z,12.40
